Ojmjakon, Russia
Current Conditions -  °F | °C
As of 8:00 AM on Tuesday 23 Dec 2014 (Local Time) from UHMM Reporting Station
Overcast Overcast  
Wind Chill:   Ceiling: 10000
Heat Index:   Visibility: 6mi
Dew Point:   Wind: 4mph
Humidity: 67%   Direction: 20°NNE
Pressure: 29.53"   Gusts: NA
Location:  63.25°N, 143.15°E
Report Text: UHMM 222100Z 02002MPS 9999 SCT026 OVC100 M13/M18 Q1000 RMKQFE735
Loading
Personal Weather Stations






























Interactive Weather Map New forecast layout! Learn more

10-Day Weather Forecast

Advertisements
Track Severe Weather on mobile